createdAt,value
2023-05-03T00:01:43.574Z,102625.12
2023-05-03T00:04:11.106Z,102622.71
2023-05-03T00:06:39.274Z,102619.94
2023-05-03T00:09:06.530Z,102617.34
2023-05-03T00:11:33.673Z,102613.86
2023-05-03T00:14:00.514Z,102611.60
2023-05-03T00:16:27.988Z,102609.00
2023-05-03T00:18:55.235Z,102604.83
2023-05-03T00:21:22.698Z,102605.38
2023-05-03T00:23:49.728Z,102606.97
2023-05-03T00:26:16.670Z,102605.27
2023-05-03T00:28:43.822Z,102607.23
2023-05-03T00:31:10.847Z,102605.52
2023-05-03T00:33:38.528Z,102598.58
2023-05-03T00:36:10.002Z,102597.91
2023-05-03T00:38:37.466Z,102596.35
2023-05-03T00:41:04.792Z,102598.81
2023-05-03T00:43:32.282Z,102597.77
2023-05-03T00:46:12.393Z,102600.73
2023-05-03T00:48:42.630Z,102598.14
2023-05-03T00:51:09.879Z,102596.74
2023-05-03T00:53:37.332Z,102592.74
2023-05-03T00:56:05.509Z,102589.44
2023-05-03T00:58:39.520Z,102587.35
2023-05-03T01:01:09.525Z,102582.14
2023-05-03T01:03:37.390Z,102581.30
2023-05-03T01:06:27.155Z,102581.84
2023-05-03T01:08:57.809Z,102580.32
2023-05-03T01:11:28.643Z,102579.64
2023-05-03T01:13:57.339Z,102583.49
2023-05-03T01:16:31.048Z,102586.30
2023-05-03T01:19:00.947Z,102584.23
2023-05-03T01:21:28.705Z,102584.59
2023-05-03T01:24:22.218Z,102582.66
2023-05-03T01:26:49.734Z,102576.22
2023-05-03T01:29:16.984Z,102574.65
2023-05-03T01:31:46.959Z,102578.14
2023-05-03T01:34:18.658Z,102574.66
2023-05-03T01:36:45.930Z,102575.52
2023-05-03T01:39:22.693Z,102575.16
2023-05-03T01:41:50.692Z,102569.58
2023-05-03T01:44:19.648Z,102567.31
2023-05-03T01:46:47.305Z,102563.99
2023-05-03T01:49:14.788Z,102558.26
2023-05-03T01:51:41.914Z,102557.20
2023-05-03T01:54:08.874Z,102555.29
2023-05-03T01:56:36.890Z,102557.52
2023-05-03T01:59:04.387Z,102556.13
2023-05-03T02:01:32.110Z,102557.02
2023-05-03T02:03:59.373Z,102558.94
2023-05-03T02:06:26.891Z,102557.91
2023-05-03T02:08:53.908Z,102558.27
2023-05-03T02:11:21.157Z,102556.37
2023-05-03T02:13:50.201Z,102560.92
2023-05-03T02:16:17.929Z,102562.15
2023-05-03T02:18:45.269Z,102558.15
2023-05-03T02:21:12.828Z,102553.77
2023-05-03T02:23:40.284Z,102549.77
2023-05-03T02:26:07.643Z,102552.73
2023-05-03T02:28:34.783Z,102550.61
2023-05-03T02:31:05.739Z,102554.11
2023-05-03T02:33:34.000Z,102549.90
2023-05-03T02:36:01.254Z,102553.38
2023-05-03T02:38:28.502Z,102554.06
2023-05-03T02:40:55.359Z,102557.55
2023-05-03T02:43:22.912Z,102561.06
2023-05-03T02:45:50.486Z,102559.13
2023-05-03T02:48:18.328Z,102560.01
2023-05-03T02:50:45.788Z,102558.75
2023-05-03T02:53:12.975Z,102559.44
2023-05-03T02:55:40.613Z,102562.59
2023-05-03T02:58:09.689Z,102567.29
2023-05-03T03:00:36.764Z,102566.58
2023-05-03T03:03:04.253Z,102563.77
2023-05-03T03:05:32.365Z,102564.46
2023-05-03T03:07:59.415Z,102566.36
2023-05-03T03:10:26.675Z,102563.06
2023-05-03T03:12:54.120Z,102566.20
2023-05-03T03:15:28.138Z,102570.56
2023-05-03T03:17:58.016Z,102573.54
2023-05-03T03:20:25.293Z,102576.84
2023-05-03T03:22:52.446Z,102580.85
2023-05-03T03:25:20.412Z,102581.71
2023-05-03T03:27:47.566Z,102583.44
2023-05-03T03:30:14.818Z,102584.98
2023-05-03T03:33:05.965Z,102587.36
2023-05-03T03:35:36.406Z,102588.86
2023-05-03T03:38:04.263Z,102592.38
2023-05-03T03:40:32.193Z,102591.48
2023-05-03T03:42:59.237Z,102599.54
2023-05-03T03:45:26.701Z,102600.98
2023-05-03T03:47:54.201Z,102602.89
2023-05-03T03:50:21.712Z,102603.95
2023-05-03T03:52:48.754Z,102606.34
2023-05-03T03:55:16.007Z,102605.42
2023-05-03T03:57:43.972Z,102607.48
2023-05-03T04:00:12.047Z,102616.00
2023-05-03T04:02:47.309Z,102610.90
2023-05-03T04:05:17.511Z,102610.34
2023-05-03T04:07:45.587Z,102614.49
2023-05-03T04:10:12.939Z,102616.92
2023-05-03T04:12:40.731Z,102619.34
2023-05-03T04:15:08.972Z,102621.21
2023-05-03T04:17:36.655Z,102625.37
2023-05-03T04:20:08.842Z,102628.81
2023-05-03T04:22:38.636Z,102631.05
2023-05-03T04:25:09.983Z,102637.84
2023-05-03T04:27:37.930Z,102639.88
2023-05-03T04:30:06.656Z,102645.77
2023-05-03T04:32:40.236Z,102651.13
2023-05-03T04:35:11.981Z,102649.65
2023-05-03T04:37:43.010Z,102652.42
2023-05-03T04:40:11.742Z,102656.38
2023-05-03T04:42:43.369Z,102653.52
2023-05-03T04:45:11.635Z,102656.45
2023-05-03T04:47:38.893Z,102659.21
2023-05-03T04:50:10.651Z,102662.14
2023-05-03T04:52:39.018Z,102659.48
2023-05-03T04:55:06.891Z,102663.27
2023-05-03T04:57:34.141Z,102666.70
2023-05-03T05:00:02.008Z,102669.79
2023-05-03T05:02:29.643Z,102669.36
2023-05-03T05:04:58.038Z,102670.71
2023-05-03T05:07:25.490Z,102673.11
2023-05-03T05:09:53.251Z,102674.45
2023-05-03T05:12:20.403Z,102678.09
2023-05-03T05:14:47.936Z,102678.73
2023-05-03T05:17:14.959Z,102678.89
2023-05-03T05:19:42.165Z,102683.76
2023-05-03T05:22:09.222Z,102684.45
2023-05-03T05:24:42.807Z,102686.33
2023-05-03T05:27:10.259Z,102689.77
2023-05-03T05:29:38.329Z,102691.36
2023-05-03T05:32:05.537Z,102693.05
2023-05-03T05:34:42.135Z,102689.38
2023-05-03T05:37:12.303Z,102689.90
2023-05-03T05:39:39.629Z,102693.98
2023-05-03T05:42:07.222Z,102692.05
2023-05-03T05:44:34.549Z,102694.34
2023-05-03T05:47:01.914Z,102694.45
2023-05-03T05:49:29.965Z,102698.89
2023-05-03T05:51:57.222Z,102700.80
2023-05-03T05:54:24.367Z,102705.05
2023-05-03T05:56:52.167Z,102699.89
2023-05-03T05:59:19.691Z,102697.92
2023-05-03T06:01:46.986Z,102702.41
2023-05-03T06:04:17.181Z,102705.67
2023-05-03T06:06:45.441Z,102707.52
2023-05-03T06:09:24.051Z,102703.17
2023-05-03T06:11:55.007Z,102705.73
2023-05-03T06:14:22.152Z,102709.70
2023-05-03T06:16:51.192Z,102707.77
2023-05-03T06:19:18.533Z,102706.02
2023-05-03T06:21:45.757Z,102703.84
2023-05-03T06:24:20.471Z,102701.86
2023-05-03T06:26:49.703Z,102699.74
2023-05-03T06:29:17.855Z,102701.27
2023-05-03T06:31:45.416Z,102695.91
2023-05-03T06:34:13.488Z,102695.53
2023-05-03T06:36:42.468Z,102702.44
2023-05-03T06:39:10.949Z,102703.44
2023-05-03T06:41:38.404Z,102703.46
2023-05-03T06:44:06.989Z,102702.84
2023-05-03T06:46:34.489Z,102707.11
2023-05-03T06:49:01.847Z,102705.50
2023-05-03T06:51:30.590Z,102705.84
2023-05-03T06:54:06.272Z,102703.79
2023-05-03T06:56:33.689Z,102706.88
2023-05-03T06:59:00.838Z,102709.23
2023-05-03T07:01:28.103Z,102710.35
2023-05-03T07:03:55.565Z,102707.68
2023-05-03T07:06:23.769Z,102710.42
2023-05-03T07:08:52.100Z,102711.06
2023-05-03T07:11:24.980Z,102710.42
2023-05-03T07:13:54.899Z,102709.50
2023-05-03T07:16:22.275Z,102717.69
2023-05-03T07:18:49.704Z,102716.36
2023-05-03T07:21:16.861Z,102712.30
2023-05-03T07:23:44.208Z,102708.52
2023-05-03T07:26:11.579Z,102710.39
2023-05-03T07:28:38.645Z,102712.23
2023-05-03T07:31:05.567Z,102710.39
2023-05-03T07:33:36.989Z,102710.42
2023-05-03T07:36:05.389Z,102709.30
2023-05-03T07:38:33.713Z,102714.70
2023-05-03T07:41:00.738Z,102714.17
2023-05-03T07:43:28.880Z,102715.36
2023-05-03T07:45:56.400Z,102716.52
2023-05-03T07:48:23.696Z,102719.56
2023-05-03T07:50:51.095Z,102718.84
2023-05-03T07:53:18.636Z,102725.53
2023-05-03T07:55:45.980Z,102722.77
2023-05-03T07:58:13.723Z,102724.55
2023-05-03T08:00:40.976Z,102726.48
2023-05-03T08:03:08.197Z,102724.83
2023-05-03T08:05:36.424Z,102723.39
2023-05-03T08:08:05.144Z,102724.52
2023-05-03T08:10:37.150Z,102724.71
2023-05-03T08:13:05.819Z,102730.20
2023-05-03T08:15:33.419Z,102732.75
2023-05-03T08:18:00.607Z,102734.91
2023-05-03T08:20:27.835Z,102731.72
2023-05-03T08:22:58.943Z,102725.87
2023-05-03T08:25:27.943Z,102729.86
2023-05-03T08:27:55.148Z,102729.60
2023-05-03T08:30:22.550Z,102730.82
2023-05-03T08:32:49.735Z,102732.60
2023-05-03T08:35:17.086Z,102734.62
2023-05-03T08:37:45.011Z,102734.59
2023-05-03T08:40:14.007Z,102732.08
2023-05-03T08:42:46.022Z,102737.15
2023-05-03T08:45:15.215Z,102732.23
2023-05-03T08:47:45.668Z,102736.02
2023-05-03T08:50:14.591Z,102735.27
2023-05-03T08:52:42.697Z,102736.86
2023-05-03T08:55:10.313Z,102735.73
2023-05-03T08:57:38.428Z,102731.95
2023-05-03T09:00:10.069Z,102730.46
2023-05-03T09:02:41.461Z,102732.77
2023-05-03T09:05:15.397Z,102734.23
2023-05-03T09:08:03.420Z,102731.77
2023-05-03T09:10:31.428Z,102727.86
2023-05-03T09:13:00.627Z,102725.79
2023-05-03T09:16:09.934Z,102729.92
2023-05-03T09:18:37.186Z,102729.86
2023-05-03T09:21:04.507Z,102731.66
2023-05-03T09:23:31.708Z,102730.83
2023-05-03T09:25:59.759Z,102727.74
2023-05-03T09:28:27.217Z,102723.90
2023-05-03T09:31:06.188Z,102727.39
2023-05-03T09:33:33.963Z,102722.95
2023-05-03T09:36:02.477Z,102725.36
2023-05-03T09:38:33.646Z,102724.61
2023-05-03T09:41:05.700Z,102726.58
2023-05-03T09:43:37.130Z,102725.21
2023-05-03T09:46:11.314Z,102725.10
2023-05-03T09:48:39.332Z,102723.00
2023-05-03T09:51:06.492Z,102726.36
2023-05-03T09:53:36.130Z,102725.11
2023-05-03T09:56:04.296Z,102720.60
2023-05-03T09:58:34.588Z,102722.77
2023-05-03T10:01:01.681Z,102721.77
2023-05-03T10:03:34.663Z,102721.30
2023-05-03T10:06:03.552Z,102722.95
2023-05-03T10:08:34.592Z,102724.95
2023-05-03T10:11:04.791Z,102728.23
2023-05-03T10:13:32.129Z,102732.91
2023-05-03T10:16:05.446Z,102731.81
2023-05-03T10:18:32.632Z,102729.41
2023-05-03T10:21:09.494Z,102730.60
2023-05-03T10:23:36.500Z,102728.11
2023-05-03T10:26:13.015Z,102728.68
2023-05-03T10:28:40.313Z,102726.17
2023-05-03T10:31:46.358Z,102722.19
2023-05-03T10:34:20.488Z,102724.69
2023-05-03T10:36:50.255Z,102721.58
2023-05-03T10:39:18.777Z,102719.58
2023-05-03T10:41:48.472Z,102720.96
2023-05-03T10:44:54.243Z,102721.77
2023-05-03T10:47:24.417Z,102722.48
2023-05-03T10:50:16.103Z,102721.89
2023-05-03T10:52:43.070Z,102721.59
2023-05-03T10:55:10.184Z,102722.81
2023-05-03T10:57:40.279Z,102725.41
2023-05-03T11:00:16.078Z,102726.23
2023-05-03T11:03:17.300Z,102730.09
2023-05-03T11:05:44.956Z,102739.91
2023-05-03T11:08:18.969Z,102741.25
2023-05-03T11:10:47.350Z,102740.44
2023-05-03T11:13:14.828Z,102743.20
2023-05-03T11:15:42.160Z,102738.25
2023-05-03T11:18:11.399Z,102736.59
2023-05-03T11:20:38.613Z,102733.39
2023-05-03T11:23:09.052Z,102736.30
2023-05-03T11:25:36.311Z,102733.20
2023-05-03T11:28:06.572Z,102733.61
2023-05-03T11:30:37.281Z,102730.67
2023-05-03T11:33:05.079Z,102727.00
2023-05-03T11:35:32.558Z,102724.98
2023-05-03T11:37:59.812Z,102720.77
2023-05-03T11:40:27.235Z,102721.73
2023-05-03T11:43:00.484Z,102719.48
2023-05-03T11:46:00.746Z,102715.74
2023-05-03T11:48:31.873Z,102710.86
2023-05-03T11:50:58.877Z,102707.58
2023-05-03T11:53:26.657Z,102706.00
2023-05-03T11:55:54.224Z,102702.88
2023-05-03T11:58:24.372Z,102697.29
2023-05-03T12:00:52.815Z,102690.12
2023-05-03T12:03:32.461Z,102691.61
2023-05-03T12:06:01.600Z,102690.63
2023-05-03T12:08:35.591Z,102688.41
2023-05-03T12:11:06.525Z,102686.55
2023-05-03T12:13:38.888Z,102688.20
2023-05-03T12:16:11.522Z,102683.39
2023-05-03T12:18:49.630Z,102683.14
2023-05-03T12:23:51.858Z,102679.47
2023-05-03T12:26:19.956Z,102682.55
2023-05-03T12:28:48.342Z,102675.32
2023-05-03T12:31:18.115Z,102675.50
2023-05-03T12:34:01.872Z,102668.33
2023-05-03T12:36:36.883Z,102664.60
2023-05-03T12:39:09.165Z,102663.66
2023-05-03T12:44:10.297Z,102657.21
2023-05-03T12:46:38.313Z,102651.50
2023-05-03T12:49:07.663Z,102650.45
2023-05-03T12:51:36.118Z,102651.64
2023-05-03T12:54:09.732Z,102647.61
2023-05-03T12:56:40.250Z,102645.63
2023-05-03T12:59:39.097Z,102644.27
2023-05-03T13:06:59.104Z,102638.23
2023-05-03T13:09:37.238Z,102640.52
2023-05-03T13:12:14.616Z,102636.80
2023-05-03T13:14:42.459Z,102635.41
2023-05-03T13:17:09.802Z,102636.68
2023-05-03T13:19:37.563Z,102634.01
2023-05-03T13:22:04.710Z,102637.92
2023-05-03T13:24:31.984Z,102637.98
2023-05-03T13:26:59.055Z,102633.28
2023-05-03T13:29:26.360Z,102633.34
2023-05-03T13:31:53.572Z,102633.88
2023-05-03T13:34:21.168Z,102631.23
2023-05-03T13:36:48.758Z,102630.82
2023-05-03T13:39:16.393Z,102628.84
2023-05-03T13:41:44.892Z,102627.56
2023-05-03T13:44:13.349Z,102625.86
2023-05-03T13:46:40.914Z,102629.82
2023-05-03T13:49:08.495Z,102630.25
2023-05-03T13:51:35.837Z,102631.45
2023-05-03T13:54:04.668Z,102635.44
2023-05-03T13:56:32.272Z,102630.81
2023-05-03T13:58:59.832Z,102632.72
2023-05-03T14:01:27.604Z,102633.25
2023-05-03T14:03:54.936Z,102632.14
2023-05-03T14:06:23.179Z,102632.14
2023-05-03T14:08:53.634Z,102634.95
2023-05-03T14:11:21.332Z,102634.78
2023-05-03T14:13:56.935Z,102631.60
2023-05-03T14:16:39.127Z,102628.77
2023-05-03T14:19:10.070Z,102624.93
2023-05-03T14:21:37.901Z,102616.11
2023-05-03T14:24:06.143Z,102611.27
2023-05-03T14:26:36.463Z,102609.67
2023-05-03T14:29:05.253Z,102613.30
2023-05-03T14:31:33.472Z,102612.14
2023-05-03T14:34:00.786Z,102607.83
2023-05-03T14:36:35.509Z,102607.96
2023-05-03T14:39:03.584Z,102609.44
2023-05-03T14:41:32.579Z,102604.77
2023-05-03T14:43:59.741Z,102605.89
2023-05-03T14:46:26.932Z,102601.04
2023-05-03T14:48:54.948Z,102597.20
2023-05-03T14:51:21.916Z,102602.48
2023-05-03T14:53:49.170Z,102601.20
2023-05-03T14:56:16.407Z,102601.92
2023-05-03T14:58:43.342Z,102596.29
2023-05-03T15:01:19.827Z,102596.61
2023-05-03T15:03:47.063Z,102599.21
2023-05-03T15:06:13.913Z,102595.29
2023-05-03T15:08:40.949Z,102593.80
2023-05-03T15:11:07.991Z,102595.14
2023-05-03T15:13:35.572Z,102598.89
2023-05-03T15:16:02.712Z,102597.55
2023-05-03T15:18:29.961Z,102601.42
2023-05-03T15:20:57.210Z,102601.42
2023-05-03T15:23:24.372Z,102599.54
2023-05-03T15:25:51.420Z,102593.05
2023-05-03T15:28:19.681Z,102599.43
2023-05-03T15:30:46.978Z,102599.42
2023-05-03T15:33:14.738Z,102592.76
2023-05-03T15:35:41.945Z,102592.45
2023-05-03T15:38:09.089Z,102585.77
2023-05-03T15:40:36.762Z,102585.23
2023-05-03T15:43:03.818Z,102581.48
2023-05-03T15:45:32.385Z,102579.20
2023-05-03T15:47:59.403Z,102578.31
2023-05-03T15:50:26.579Z,102573.04
2023-05-03T15:52:53.545Z,102573.56
2023-05-03T15:55:20.568Z,102574.63
2023-05-03T15:57:47.821Z,102576.56
2023-05-03T16:00:16.041Z,102577.11
2023-05-03T16:02:43.452Z,102579.77
2023-05-03T16:05:11.282Z,102577.67
2023-05-03T16:07:38.700Z,102572.27
2023-05-03T16:10:08.842Z,102568.79
2023-05-03T16:12:36.668Z,102570.24
2023-05-03T16:15:04.945Z,102566.10
2023-05-03T16:17:35.003Z,102557.58
2023-05-03T16:20:07.473Z,102562.12
2023-05-03T16:22:36.728Z,102562.47
2023-05-03T16:25:07.053Z,102564.95
2023-05-03T16:27:34.520Z,102569.73
2023-05-03T16:30:02.340Z,102568.91
2023-05-03T16:32:30.078Z,102567.70
2023-05-03T16:34:57.297Z,102568.40
2023-05-03T16:37:24.273Z,102565.24
2023-05-03T16:39:51.278Z,102562.94
2023-05-03T16:42:18.544Z,102561.48
2023-05-03T16:44:46.202Z,102561.45
2023-05-03T16:47:13.345Z,102569.84
2023-05-03T16:49:40.391Z,102566.79
2023-05-03T16:52:08.764Z,102566.21
2023-05-03T16:54:37.377Z,102564.80
2023-05-03T16:57:04.306Z,102561.61
2023-05-03T16:59:31.856Z,102564.54
2023-05-03T17:01:59.055Z,102565.20
2023-05-03T17:04:27.074Z,102564.05
2023-05-03T17:06:54.128Z,102561.48
2023-05-03T17:09:21.967Z,102559.27
2023-05-03T17:11:49.035Z,102556.70
2023-05-03T17:14:15.976Z,102557.63
2023-05-03T17:16:44.174Z,102554.35
2023-05-03T17:19:11.421Z,102555.81
2023-05-03T17:21:38.578Z,102554.17
2023-05-03T17:24:06.253Z,102555.64
2023-05-03T17:26:33.152Z,102554.46
2023-05-03T17:29:00.569Z,102553.52
2023-05-03T17:31:27.579Z,102550.50
2023-05-03T17:33:54.709Z,102550.50
2023-05-03T17:36:22.429Z,102552.81
2023-05-03T17:38:50.047Z,102551.79
2023-05-03T17:41:17.179Z,102547.45
2023-05-03T17:43:44.326Z,102549.59
2023-05-03T17:46:12.474Z,102548.91
2023-05-03T17:48:44.128Z,102550.02
2023-05-03T17:51:14.144Z,102552.87
2023-05-03T17:53:41.934Z,102549.98
2023-05-03T17:56:15.635Z,102549.13
2023-05-03T17:58:43.200Z,102544.61
2023-05-03T18:01:10.692Z,102541.63
2023-05-03T18:03:37.831Z,102543.31
2023-05-03T18:06:07.859Z,102541.52
2023-05-03T18:08:35.377Z,102544.27
2023-05-03T18:11:02.673Z,102542.80
2023-05-03T18:13:32.957Z,102536.38
2023-05-03T18:16:00.441Z,102527.48
2023-05-03T18:18:27.561Z,102528.96
2023-05-03T18:21:01.673Z,102526.56
2023-05-03T18:23:29.946Z,102525.95
2023-05-03T18:25:56.899Z,102529.11
2023-05-03T18:28:24.256Z,102535.63
2023-05-03T18:30:58.082Z,102540.19
2023-05-03T18:33:25.532Z,102544.56
2023-05-03T18:35:53.239Z,102541.92
2023-05-03T18:38:21.237Z,102536.48
2023-05-03T18:40:48.700Z,102532.27
2023-05-03T18:43:15.872Z,102529.45
2023-05-03T18:45:43.103Z,102525.19
2023-05-03T18:48:11.412Z,102528.01
2023-05-03T18:50:38.838Z,102534.14
2023-05-03T18:53:06.215Z,102537.50
2023-05-03T18:55:33.333Z,102538.57
2023-05-03T18:58:01.006Z,102540.18
2023-05-03T19:00:28.044Z,102538.11
2023-05-03T19:02:55.225Z,102535.69
2023-05-03T19:05:22.241Z,102535.23
2023-05-03T19:07:49.603Z,102536.00
2023-05-03T19:10:19.308Z,102533.05
2023-05-03T19:12:46.384Z,102531.36
2023-05-03T19:15:13.531Z,102534.58
2023-05-03T19:17:41.394Z,102534.61
2023-05-03T19:20:09.667Z,102526.58
2023-05-03T19:22:36.589Z,102520.73
2023-05-03T19:25:05.210Z,102520.92
2023-05-03T19:27:32.539Z,102520.96
2023-05-03T19:29:59.684Z,102518.64
2023-05-03T19:32:26.627Z,102515.17
2023-05-03T19:34:53.592Z,102513.48
2023-05-03T19:37:20.930Z,102516.88
2023-05-03T19:39:48.068Z,102512.39
2023-05-03T19:42:15.217Z,102512.77
2023-05-03T19:44:42.369Z,102516.13
2023-05-03T19:47:09.437Z,102517.00
2023-05-03T19:49:37.381Z,102520.66
2023-05-03T19:52:05.555Z,102520.98
2023-05-03T19:54:33.012Z,102519.58
2023-05-03T19:57:06.958Z,102518.36
2023-05-03T19:59:34.904Z,102522.77
2023-05-03T20:02:02.498Z,102532.61
2023-05-03T20:04:30.005Z,102539.15
2023-05-03T20:06:57.056Z,102542.05
2023-05-03T20:09:24.201Z,102547.02
2023-05-03T20:11:55.999Z,102555.85
2023-05-03T20:14:23.109Z,102555.89
2023-05-03T20:16:50.170Z,102556.77
2023-05-03T20:19:17.816Z,102561.86
2023-05-03T20:21:44.971Z,102564.69
2023-05-03T20:24:12.025Z,102562.09
2023-05-03T20:26:40.800Z,102559.47
2023-05-03T20:29:07.652Z,102555.98
2023-05-03T20:31:35.009Z,102556.57
2023-05-03T20:34:02.253Z,102554.71
2023-05-03T20:36:29.618Z,102548.98
2023-05-03T20:38:56.650Z,102546.80
2023-05-03T20:41:23.715Z,102548.79
2023-05-03T20:43:51.393Z,102547.24
2023-05-03T20:46:18.578Z,102553.77
2023-05-03T20:48:45.654Z,102558.67
2023-05-03T20:51:13.008Z,102562.34
2023-05-03T20:53:40.055Z,102565.65
2023-05-03T20:56:07.624Z,102561.93
2023-05-03T20:58:34.776Z,102561.91
2023-05-03T21:01:06.575Z,102565.91
2023-05-03T21:03:34.053Z,102564.48
2023-05-03T21:06:01.132Z,102569.91
2023-05-03T21:08:28.078Z,102575.70
2023-05-03T21:10:55.167Z,102580.77
2023-05-03T21:13:22.266Z,102580.06
2023-05-03T21:15:50.553Z,102575.67
2023-05-03T21:18:18.950Z,102571.11
2023-05-03T21:20:46.072Z,102564.30
2023-05-03T21:23:13.329Z,102555.70
2023-05-03T21:25:40.318Z,102547.29
2023-05-03T21:28:07.549Z,102543.29
2023-05-03T21:30:34.880Z,102540.15
2023-05-03T21:33:02.298Z,102534.58
2023-05-03T21:35:29.492Z,102535.63
2023-05-03T21:37:56.530Z,102527.05
2023-05-03T21:40:23.578Z,102522.89
2023-05-03T21:42:52.050Z,102523.81
2023-05-03T21:45:19.640Z,102524.38
2023-05-03T21:47:46.927Z,102521.59
2023-05-03T21:50:13.905Z,102518.44
2023-05-03T21:52:41.583Z,102522.27
2023-05-03T21:55:09.450Z,102525.39
2023-05-03T21:57:36.884Z,102529.79
2023-05-03T22:00:07.661Z,102528.44
2023-05-03T22:02:35.789Z,102527.24
2023-05-03T22:05:03.068Z,102527.81
2023-05-03T22:07:30.201Z,102521.69
2023-05-03T22:09:57.161Z,102516.80
2023-05-03T22:12:24.972Z,102509.82
2023-05-03T22:14:52.369Z,102503.70
2023-05-03T22:17:19.437Z,102504.07
2023-05-03T22:19:46.472Z,102505.66
2023-05-03T22:22:13.860Z,102505.70
2023-05-03T22:24:41.175Z,102510.30
2023-05-03T22:27:08.237Z,102511.90
2023-05-03T22:29:37.207Z,102509.12
2023-05-03T22:32:04.898Z,102511.05
2023-05-03T22:34:32.225Z,102513.70
2023-05-03T22:36:59.061Z,102514.95
2023-05-03T22:39:26.424Z,102517.42
2023-05-03T22:41:53.570Z,102518.12
2023-05-03T22:44:20.619Z,102521.08
2023-05-03T22:46:47.660Z,102520.89
2023-05-03T22:49:15.222Z,102521.58
2023-05-03T22:51:42.266Z,102525.05
2023-05-03T22:54:09.216Z,102524.84
2023-05-03T22:56:37.181Z,102524.83
2023-05-03T22:59:04.535Z,102527.10
2023-05-03T23:01:31.810Z,102521.69
2023-05-03T23:03:59.024Z,102518.35
2023-05-03T23:06:25.917Z,102520.64
2023-05-03T23:08:53.144Z,102519.27
2023-05-03T23:11:20.799Z,102516.14
2023-05-03T23:13:47.847Z,102514.02
2023-05-03T23:16:15.002Z,102502.98
2023-05-03T23:18:42.448Z,102508.24
2023-05-03T23:21:09.700Z,102507.08
2023-05-03T23:23:36.954Z,102502.86
2023-05-03T23:26:04.109Z,102497.60
2023-05-03T23:28:32.395Z,102491.14
2023-05-03T23:30:59.844Z,102489.73
2023-05-03T23:33:27.549Z,102484.81
2023-05-03T23:35:55.258Z,102476.77
2023-05-03T23:38:22.764Z,102471.99
2023-05-03T23:40:50.072Z,102473.19
2023-05-03T23:43:17.115Z,102473.88
2023-05-03T23:45:44.196Z,102468.61
2023-05-03T23:48:11.476Z,102466.84
2023-05-03T23:50:38.469Z,102464.73
2023-05-03T23:53:06.736Z,102462.64
2023-05-03T23:55:33.687Z,102464.58
2023-05-03T23:58:00.733Z,102463.89
